createdAt,value
2023-01-13T00:00:16.699Z,15.07
2023-01-13T00:02:43.883Z,15.02
2023-01-13T00:05:11.281Z,14.99
2023-01-13T00:07:40.529Z,14.96
2023-01-13T00:10:09.719Z,14.90
2023-01-13T00:12:40.611Z,14.87
2023-01-13T00:15:09.421Z,14.84
2023-01-13T00:17:36.522Z,14.84
2023-01-13T00:20:03.858Z,14.84
2023-01-13T00:22:34.244Z,14.84
2023-01-13T00:25:02.127Z,14.81
2023-01-13T00:27:29.569Z,14.77
2023-01-13T00:29:56.565Z,14.74
2023-01-13T00:32:23.805Z,14.72
2023-01-13T00:34:50.902Z,14.69
2023-01-13T00:37:17.870Z,14.69
2023-01-13T00:39:46.034Z,14.66
2023-01-13T00:42:31.732Z,14.64
2023-01-13T00:44:58.649Z,14.62
2023-01-13T00:47:25.583Z,14.60
2023-01-13T00:49:52.534Z,14.59
2023-01-13T00:52:19.532Z,14.58
2023-01-13T00:54:46.448Z,14.56
2023-01-13T00:57:13.358Z,14.55
2023-01-13T00:59:40.291Z,14.55
2023-01-13T01:02:07.425Z,14.54
2023-01-13T01:04:34.435Z,14.54
2023-01-13T01:07:01.695Z,14.52
2023-01-13T01:09:34.917Z,14.51
2023-01-13T01:12:02.225Z,14.50
2023-01-13T01:14:29.116Z,14.49
2023-01-13T01:16:56.098Z,14.51
2023-01-13T01:19:23.139Z,14.50
2023-01-13T01:21:50.115Z,14.49
2023-01-13T01:24:17.194Z,14.47
2023-01-13T01:26:44.261Z,14.46
2023-01-13T01:29:15.926Z,14.47
2023-01-13T01:31:43.641Z,14.47
2023-01-13T01:34:11.145Z,14.46
2023-01-13T01:36:39.788Z,14.45
2023-01-13T01:39:07.242Z,14.45
2023-01-13T01:41:35.900Z,14.43
2023-01-13T01:44:08.900Z,14.39
2023-01-13T01:46:41.760Z,14.41
2023-01-13T01:49:15.618Z,14.41
2023-01-13T01:52:04.812Z,14.39
2023-01-13T01:54:40.598Z,14.40
2023-01-13T01:57:11.720Z,14.40
2023-01-13T01:59:39.269Z,14.40
2023-01-13T02:02:06.504Z,14.40
2023-01-13T02:04:51.330Z,14.41
2023-01-13T02:07:24.785Z,14.37
2023-01-13T02:09:53.057Z,14.40
2023-01-13T02:12:32.774Z,14.38
2023-01-13T02:15:26.174Z,14.35
2023-01-13T02:17:56.164Z,14.38
2023-01-13T02:20:28.889Z,14.38
2023-01-13T02:23:35.395Z,14.39
2023-01-13T02:26:20.693Z,14.37
2023-01-13T02:29:50.712Z,14.37
2023-01-13T02:32:29.539Z,14.37
2023-01-13T02:35:06.735Z,14.38
2023-01-13T02:37:37.472Z,14.37
2023-01-13T02:40:25.686Z,14.37
2023-01-13T02:43:23.977Z,14.36
2023-01-13T02:46:03.278Z,14.36
2023-01-13T02:48:32.615Z,14.35
2023-01-13T02:51:08.287Z,14.37
2023-01-13T02:53:41.090Z,14.35
2023-01-13T02:56:10.126Z,14.37
2023-01-13T02:58:39.928Z,14.33
2023-01-13T03:01:07.112Z,14.37
2023-01-13T03:03:34.005Z,14.35
2023-01-13T03:06:31.959Z,14.36
2023-01-13T03:09:04.644Z,14.36
2023-01-13T03:11:40.103Z,14.36
2023-01-13T03:14:50.133Z,14.37
2023-01-13T03:17:44.404Z,14.36
2023-01-13T03:20:25.641Z,14.36
2023-01-13T03:22:58.476Z,14.37
2023-01-13T03:25:55.531Z,14.38
2023-01-13T03:28:32.706Z,14.36
2023-01-13T03:31:08.300Z,14.37
2023-01-13T03:33:41.326Z,14.37
2023-01-13T03:36:11.691Z,14.39
2023-01-13T03:38:45.739Z,14.40
2023-01-13T03:41:19.344Z,14.39
2023-01-13T03:44:12.545Z,14.39
2023-01-13T03:46:48.227Z,14.40
2023-01-13T03:49:22.530Z,14.39
2023-01-13T03:51:55.566Z,14.39
2023-01-13T03:54:25.199Z,14.41
2023-01-13T03:56:57.466Z,14.41
2023-01-13T03:59:28.284Z,14.40
2023-01-13T04:02:00.516Z,14.41
2023-01-13T04:04:36.312Z,14.42
2023-01-13T04:07:27.477Z,14.39
2023-01-13T04:10:00.356Z,14.40
2023-01-13T04:12:52.524Z,14.39
2023-01-13T04:15:22.603Z,14.41
2023-01-13T04:17:50.613Z,14.41
2023-01-13T04:20:17.612Z,14.42
2023-01-13T04:22:44.431Z,14.42
2023-01-13T04:25:11.685Z,14.40
2023-01-13T04:27:38.655Z,14.39
2023-01-13T04:30:07.139Z,14.40
2023-01-13T04:32:33.930Z,14.40
2023-01-13T04:35:00.757Z,14.40
2023-01-13T04:37:27.580Z,14.38
2023-01-13T04:39:54.453Z,14.41
2023-01-13T04:42:21.299Z,14.42
2023-01-13T04:44:48.128Z,14.43
2023-01-13T04:47:14.959Z,14.43
2023-01-13T04:49:41.785Z,14.42
2023-01-13T04:52:08.659Z,14.44
2023-01-13T04:54:35.461Z,14.44
2023-01-13T04:57:02.278Z,14.43
2023-01-13T04:59:29.131Z,14.44
2023-01-13T05:01:56.105Z,14.43
2023-01-13T05:04:23.109Z,14.42
2023-01-13T05:06:50.011Z,14.44
2023-01-13T05:09:16.880Z,14.42
2023-01-13T05:12:12.852Z,14.43
2023-01-13T05:14:58.557Z,14.43
2023-01-13T05:17:26.266Z,14.43
2023-01-13T05:19:53.227Z,14.44
2023-01-13T05:22:38.897Z,14.44
2023-01-13T05:25:28.255Z,14.43
2023-01-13T05:27:58.069Z,14.43
2023-01-13T05:30:27.777Z,14.43
2023-01-13T05:32:54.880Z,14.43
2023-01-13T05:35:21.836Z,14.42
2023-01-13T05:37:48.667Z,14.42
2023-01-13T05:40:36.805Z,14.40
2023-01-13T05:43:22.219Z,14.40
2023-01-13T05:46:05.010Z,14.41
2023-01-13T05:48:35.437Z,14.40
2023-01-13T05:51:04.215Z,14.41
2023-01-13T05:53:32.104Z,14.40
2023-01-13T05:55:59.461Z,14.44
2023-01-13T05:58:27.980Z,14.45
2023-01-13T06:01:03.830Z,14.51
2023-01-13T06:03:31.229Z,14.59
2023-01-13T06:06:02.428Z,14.68
2023-01-13T06:08:29.613Z,14.72
2023-01-13T06:10:56.737Z,14.77
2023-01-13T06:13:25.536Z,14.80
2023-01-13T06:15:55.749Z,14.70
2023-01-13T06:18:22.780Z,14.66
2023-01-13T06:20:49.780Z,14.60
2023-01-13T06:23:16.618Z,14.64
2023-01-13T06:25:49.206Z,14.62
2023-01-13T06:28:16.177Z,14.65
2023-01-13T06:30:48.274Z,14.68
2023-01-13T06:33:20.071Z,14.76
2023-01-13T06:35:54.469Z,14.80
2023-01-13T06:38:23.741Z,14.82
2023-01-13T06:40:50.753Z,14.85
2023-01-13T06:43:18.028Z,14.88
2023-01-13T06:45:56.204Z,14.91
2023-01-13T06:48:33.222Z,14.94
2023-01-13T06:51:00.435Z,14.95
2023-01-13T06:53:27.517Z,14.99
2023-01-13T06:55:54.369Z,15.02
2023-01-13T06:58:21.253Z,15.04
2023-01-13T07:00:51.863Z,15.06
2023-01-13T07:03:19.966Z,15.07
2023-01-13T07:05:55.106Z,15.12
2023-01-13T07:08:23.487Z,15.13
2023-01-13T07:10:51.619Z,15.14
2023-01-13T07:13:37.257Z,15.10
2023-01-13T07:16:07.325Z,15.06
2023-01-13T07:18:35.225Z,15.02
2023-01-13T07:21:03.461Z,15.01
2023-01-13T07:23:33.320Z,15.02
2023-01-13T07:26:00.747Z,15.02
2023-01-13T07:28:29.283Z,15.00
2023-01-13T07:30:57.012Z,14.98
2023-01-13T07:33:24.716Z,14.97
2023-01-13T07:35:59.875Z,14.97
2023-01-13T07:38:27.492Z,15.01
2023-01-13T07:40:55.156Z,14.98
2023-01-13T07:43:34.372Z,14.93
2023-01-13T07:46:05.088Z,14.91
2023-01-13T07:48:35.600Z,14.89
2023-01-13T07:51:07.995Z,14.88
2023-01-13T07:53:35.942Z,14.88
2023-01-13T07:56:04.764Z,14.91
2023-01-13T07:58:33.265Z,14.93
2023-01-13T08:01:00.369Z,14.94
2023-01-13T08:03:28.021Z,14.92
2023-01-13T08:05:54.931Z,14.94
2023-01-13T08:08:21.870Z,14.92
2023-01-13T08:10:48.893Z,14.98
2023-01-13T08:13:18.149Z,15.02
2023-01-13T08:15:46.491Z,14.98
2023-01-13T08:18:14.106Z,15.03
2023-01-13T08:20:41.667Z,15.10
2023-01-13T08:23:08.753Z,15.15
2023-01-13T08:25:35.850Z,15.23
2023-01-13T08:28:02.736Z,15.27
2023-01-13T08:30:29.880Z,15.29
2023-01-13T08:32:57.033Z,15.32
2023-01-13T08:35:24.455Z,15.34
2023-01-13T08:37:51.923Z,15.37
2023-01-13T08:40:21.131Z,15.39
2023-01-13T08:42:48.834Z,15.42
2023-01-13T08:45:16.346Z,15.43
2023-01-13T08:47:43.333Z,15.46
2023-01-13T08:50:13.619Z,15.47
2023-01-13T08:52:40.847Z,15.48
2023-01-13T08:55:09.252Z,15.49
2023-01-13T08:57:36.164Z,15.51
2023-01-13T09:00:05.660Z,15.45
2023-01-13T09:02:32.786Z,15.44
2023-01-13T09:05:01.886Z,15.43
2023-01-13T09:07:29.847Z,15.52
2023-01-13T09:09:57.354Z,15.57
2023-01-13T09:12:43.421Z,15.60
2023-01-13T09:15:11.227Z,15.66
2023-01-13T09:17:38.167Z,15.69
2023-01-13T09:20:06.361Z,15.72
2023-01-13T09:22:35.878Z,15.71
2023-01-13T09:25:02.746Z,15.63
2023-01-13T09:27:30.291Z,15.61
2023-01-13T09:29:57.158Z,15.61
2023-01-13T09:32:24.075Z,15.63
2023-01-13T09:35:03.309Z,15.62
2023-01-13T09:37:36.933Z,15.59
2023-01-13T09:40:19.513Z,15.67
2023-01-13T09:43:21.610Z,15.59
2023-01-13T09:45:54.248Z,15.55
2023-01-13T09:48:52.391Z,15.58
2023-01-13T09:51:32.077Z,15.57
2023-01-13T09:54:28.211Z,15.59
2023-01-13T09:56:55.445Z,15.62
2023-01-13T09:59:22.505Z,15.63
2023-01-13T10:02:00.792Z,15.60
2023-01-13T10:04:28.391Z,15.58
2023-01-13T10:07:06.320Z,15.59
2023-01-13T10:09:45.357Z,15.57
2023-01-13T10:12:39.624Z,15.56
2023-01-13T10:15:14.030Z,15.57
2023-01-13T10:17:49.665Z,15.56
2023-01-13T10:21:01.639Z,15.54
2023-01-13T10:23:58.137Z,15.52
2023-01-13T10:26:40.331Z,15.52
2023-01-13T10:29:25.275Z,15.51
2023-01-13T10:31:56.615Z,15.53
2023-01-13T10:34:24.580Z,15.47
2023-01-13T10:37:08.670Z,15.44
2023-01-13T10:39:45.236Z,15.47
2023-01-13T10:42:22.380Z,15.50
2023-01-13T10:44:53.695Z,15.54
2023-01-13T10:47:26.600Z,15.55
2023-01-13T10:50:07.062Z,15.57
2023-01-13T10:52:39.729Z,15.54
2023-01-13T10:55:28.650Z,15.38
2023-01-13T10:57:55.599Z,15.14
2023-01-13T11:00:31.403Z,15.29
2023-01-13T11:03:35.268Z,15.36
2023-01-13T11:06:03.561Z,15.41
2023-01-13T11:08:51.919Z,15.46
2023-01-13T11:11:36.837Z,15.49
2023-01-13T11:14:28.081Z,15.53
2023-01-13T11:17:00.417Z,15.54
2023-01-13T11:19:31.503Z,15.58
2023-01-13T11:22:10.377Z,15.59
2023-01-13T11:24:46.373Z,15.62
2023-01-13T11:27:55.852Z,15.62
2023-01-13T11:30:39.101Z,15.65
2023-01-13T11:33:15.185Z,15.65
2023-01-13T11:35:42.240Z,15.63
2023-01-13T11:38:35.325Z,15.65
2023-01-13T11:41:40.221Z,15.67
2023-01-13T11:44:10.246Z,15.68
2023-01-13T11:46:37.697Z,15.70
2023-01-13T11:49:05.367Z,15.68
2023-01-13T11:51:55.625Z,15.71
2023-01-13T11:54:56.571Z,15.70
2023-01-13T11:57:45.610Z,15.72
2023-01-13T12:00:40.595Z,15.71
2023-01-13T12:03:23.783Z,15.74
2023-01-13T12:06:20.450Z,15.48
2023-01-13T12:09:02.453Z,15.60
2023-01-13T12:12:00.913Z,15.67
2023-01-13T12:15:05.168Z,15.75
2023-01-13T12:17:56.816Z,15.82
2023-01-13T12:20:34.998Z,15.86
2023-01-13T12:23:06.877Z,15.89
2023-01-13T12:25:43.304Z,15.94
2023-01-13T12:28:58.304Z,15.94
2023-01-13T12:31:27.134Z,15.96
2023-01-13T12:34:00.912Z,15.98
2023-01-13T12:36:39.847Z,15.99
2023-01-13T12:39:30.035Z,16.02
2023-01-13T12:42:32.639Z,16.06
2023-01-13T12:45:11.635Z,16.10
2023-01-13T12:47:43.956Z,16.16
2023-01-13T12:50:23.321Z,16.22
2023-01-13T12:52:56.423Z,16.27
2023-01-13T12:55:24.484Z,16.30
2023-01-13T12:58:06.691Z,16.35
2023-01-13T13:00:42.175Z,16.37
2023-01-13T13:03:12.610Z,16.40
2023-01-13T13:05:42.902Z,16.43
2023-01-13T13:08:25.273Z,16.45
2023-01-13T13:11:35.829Z,16.50
2023-01-13T13:14:12.247Z,16.54
2023-01-13T13:16:50.300Z,16.57
2023-01-13T13:19:23.042Z,16.59
2023-01-13T13:22:16.737Z,16.62
2023-01-13T13:24:57.765Z,16.63
2023-01-13T13:27:44.442Z,16.71
2023-01-13T13:30:21.511Z,16.74
2023-01-13T13:33:03.770Z,16.77
2023-01-13T13:35:55.359Z,16.81
2023-01-13T13:39:03.556Z,16.87
2023-01-13T13:41:49.502Z,16.92
2023-01-13T13:44:55.754Z,16.94
2023-01-13T13:47:23.104Z,16.96
2023-01-13T13:49:56.321Z,17.01
2023-01-13T13:52:23.360Z,17.04
2023-01-13T13:54:54.301Z,17.09
2023-01-13T13:57:44.963Z,17.12
2023-01-13T14:00:15.339Z,17.14
2023-01-13T14:02:50.787Z,17.17
2023-01-13T14:05:30.512Z,17.01
2023-01-13T14:08:04.250Z,16.85
2023-01-13T14:10:34.852Z,16.82
2023-01-13T14:13:20.408Z,16.76
2023-01-13T14:15:50.650Z,16.74
2023-01-13T14:18:22.013Z,16.83
2023-01-13T14:20:59.640Z,16.88
2023-01-13T14:23:32.554Z,16.88
2023-01-13T14:26:08.988Z,16.90
2023-01-13T14:28:41.250Z,16.90
2023-01-13T14:31:10.135Z,16.91
2023-01-13T14:33:41.789Z,16.79
2023-01-13T14:36:17.163Z,16.50
2023-01-13T14:38:46.893Z,16.50
2023-01-13T14:41:18.895Z,16.59
2023-01-13T14:43:47.814Z,16.64
2023-01-13T14:46:15.634Z,16.67
2023-01-13T14:48:47.393Z,16.70
2023-01-13T14:51:23.237Z,16.67
2023-01-13T14:53:50.516Z,16.69
2023-01-13T14:56:55.421Z,16.69
2023-01-13T15:00:08.270Z,16.68
2023-01-13T15:02:49.126Z,16.70
2023-01-13T15:05:24.776Z,16.70
2023-01-13T15:08:11.948Z,16.71
2023-01-13T15:10:46.268Z,16.71
2023-01-13T15:13:36.045Z,16.69
2023-01-13T15:16:07.203Z,16.53
2023-01-13T15:18:35.955Z,16.32
2023-01-13T15:21:03.201Z,16.39
2023-01-13T15:23:30.175Z,16.44
2023-01-13T15:26:00.579Z,16.47
2023-01-13T15:28:29.968Z,16.50
2023-01-13T15:31:02.066Z,16.46
2023-01-13T15:33:31.952Z,16.47
2023-01-13T15:35:59.100Z,16.49
2023-01-13T15:38:26.251Z,16.49
2023-01-13T15:40:53.261Z,16.51
2023-01-13T15:43:43.143Z,16.50
2023-01-13T15:46:38.845Z,16.51
2023-01-13T15:49:35.206Z,16.55
2023-01-13T15:52:04.617Z,16.54
2023-01-13T15:54:31.749Z,16.22
2023-01-13T15:56:59.094Z,15.88
2023-01-13T15:59:28.320Z,15.92
2023-01-13T16:01:55.287Z,15.99
2023-01-13T16:04:22.211Z,16.02
2023-01-13T16:06:49.176Z,16.03
2023-01-13T16:09:17.239Z,16.07
2023-01-13T16:11:44.480Z,16.08
2023-01-13T16:14:11.601Z,16.09
2023-01-13T16:16:38.659Z,16.08
2023-01-13T16:19:05.687Z,16.07
2023-01-13T16:21:32.768Z,16.06
2023-01-13T16:23:59.838Z,16.06
2023-01-13T16:26:30.323Z,16.07
2023-01-13T16:28:58.583Z,16.07
2023-01-13T16:31:32.528Z,16.06
2023-01-13T16:34:03.644Z,16.00
2023-01-13T16:36:32.183Z,16.02
2023-01-13T16:38:59.317Z,15.83
2023-01-13T16:41:26.567Z,15.79
2023-01-13T16:43:53.921Z,15.82
2023-01-13T16:46:27.311Z,15.89
2023-01-13T16:48:57.059Z,15.90
2023-01-13T16:51:25.065Z,15.90
2023-01-13T16:53:52.258Z,15.89
2023-01-13T16:56:20.771Z,15.85
2023-01-13T16:58:48.349Z,15.89
2023-01-13T17:01:27.901Z,16.04
2023-01-13T17:03:56.083Z,16.11
2023-01-13T17:06:29.679Z,16.17
2023-01-13T17:09:02.797Z,16.26
2023-01-13T17:11:30.274Z,16.32
2023-01-13T17:13:57.796Z,16.40
2023-01-13T17:16:26.439Z,16.50
2023-01-13T17:18:54.210Z,16.60
2023-01-13T17:21:21.764Z,16.61
2023-01-13T17:23:49.474Z,16.63
2023-01-13T17:26:29.535Z,16.70
2023-01-13T17:28:56.570Z,16.75
2023-01-13T17:31:24.605Z,16.79
2023-01-13T17:33:51.720Z,16.74
2023-01-13T17:36:19.578Z,16.70
2023-01-13T17:38:47.869Z,16.73
2023-01-13T17:41:16.055Z,16.75
2023-01-13T17:43:44.490Z,16.78
2023-01-13T17:46:14.185Z,16.72
2023-01-13T17:48:44.022Z,16.66
2023-01-13T17:51:13.998Z,16.63
2023-01-13T17:53:41.754Z,16.65
2023-01-13T17:56:10.276Z,16.66
2023-01-13T17:58:38.823Z,16.76
2023-01-13T18:01:12.502Z,16.82
2023-01-13T18:03:42.560Z,16.87
2023-01-13T18:06:18.149Z,16.94
2023-01-13T18:08:46.727Z,16.95
2023-01-13T18:11:15.349Z,16.98
2023-01-13T18:13:45.980Z,17.00
2023-01-13T18:16:17.353Z,17.04
2023-01-13T18:18:47.015Z,17.05
2023-01-13T18:21:44.398Z,17.09
2023-01-13T18:24:32.810Z,17.09
2023-01-13T18:27:19.144Z,17.13
2023-01-13T18:29:46.570Z,17.09
2023-01-13T18:32:14.326Z,17.05
2023-01-13T18:34:41.699Z,17.02
2023-01-13T18:37:10.765Z,17.01
2023-01-13T18:39:39.493Z,16.98
2023-01-13T18:42:27.561Z,16.95
2023-01-13T18:44:57.848Z,16.83
2023-01-13T18:47:26.511Z,16.84
2023-01-13T18:49:53.607Z,16.88
2023-01-13T18:52:21.396Z,16.90
2023-01-13T18:54:49.260Z,16.83
2023-01-13T18:57:17.511Z,16.80
2023-01-13T18:59:45.528Z,16.75
2023-01-13T19:02:19.473Z,16.76
2023-01-13T19:04:48.150Z,16.78
2023-01-13T19:07:24.034Z,16.80
2023-01-13T19:09:51.698Z,16.82
2023-01-13T19:12:39.452Z,16.81
2023-01-13T19:15:08.018Z,16.80
2023-01-13T19:17:35.954Z,16.84
2023-01-13T19:20:05.743Z,16.88
2023-01-13T19:22:35.701Z,16.88
2023-01-13T19:25:05.156Z,16.91
2023-01-13T19:27:34.822Z,16.89
2023-01-13T19:30:02.604Z,16.89
2023-01-13T19:32:33.946Z,16.88
2023-01-13T19:35:03.874Z,16.90
2023-01-13T19:37:32.052Z,16.90
2023-01-13T19:40:00.260Z,16.92
2023-01-13T19:42:48.155Z,16.93
2023-01-13T19:45:29.772Z,17.00
2023-01-13T19:48:05.452Z,17.03
2023-01-13T19:50:37.133Z,17.07
2023-01-13T19:53:10.088Z,17.07
2023-01-13T19:55:37.636Z,17.03
2023-01-13T19:58:05.181Z,17.06
2023-01-13T20:00:37.372Z,17.09
2023-01-13T20:03:08.396Z,17.13
2023-01-13T20:05:38.240Z,17.14
2023-01-13T20:08:06.689Z,17.13
2023-01-13T20:10:35.861Z,17.09
2023-01-13T20:13:04.376Z,17.07
2023-01-13T20:15:36.074Z,17.06
2023-01-13T20:18:03.963Z,17.05
2023-01-13T20:20:31.651Z,17.05
2023-01-13T20:23:00.005Z,17.04
2023-01-13T20:25:29.340Z,17.08
2023-01-13T20:27:57.133Z,17.11
2023-01-13T20:30:27.703Z,17.12
2023-01-13T20:32:56.899Z,17.16
2023-01-13T20:35:28.017Z,17.18
2023-01-13T20:37:55.168Z,17.19
2023-01-13T20:40:22.725Z,17.24
2023-01-13T20:42:50.694Z,17.27
2023-01-13T20:45:21.698Z,17.25
2023-01-13T20:47:50.045Z,17.26
2023-01-13T20:50:19.141Z,17.30
2023-01-13T20:52:50.070Z,17.35
2023-01-13T20:55:17.523Z,17.40
2023-01-13T20:57:50.288Z,17.49
2023-01-13T21:00:18.128Z,17.56
2023-01-13T21:02:46.227Z,17.64
2023-01-13T21:05:16.673Z,17.70
2023-01-13T21:07:46.167Z,17.76
2023-01-13T21:10:17.663Z,17.80
2023-01-13T21:13:03.618Z,17.84
2023-01-13T21:15:30.803Z,17.86
2023-01-13T21:18:16.470Z,17.95
2023-01-13T21:20:45.195Z,18.02
2023-01-13T21:23:12.417Z,18.08
2023-01-13T21:25:41.108Z,18.12
2023-01-13T21:28:15.237Z,18.17
2023-01-13T21:30:45.693Z,18.23
2023-01-13T21:33:16.181Z,18.27
2023-01-13T21:35:46.387Z,18.33
2023-01-13T21:38:14.021Z,18.37
2023-01-13T21:40:42.744Z,18.41
2023-01-13T21:43:31.558Z,18.39
2023-01-13T21:46:17.855Z,18.35
2023-01-13T21:48:50.156Z,18.40
2023-01-13T21:51:20.437Z,18.43
2023-01-13T21:53:50.971Z,18.45
2023-01-13T21:56:19.069Z,18.48
2023-01-13T21:58:46.343Z,18.48
2023-01-13T22:01:13.596Z,18.49
2023-01-13T22:04:00.314Z,18.50
2023-01-13T22:06:28.054Z,18.50
2023-01-13T22:09:00.419Z,18.43
2023-01-13T22:11:29.033Z,18.46
2023-01-13T22:14:08.685Z,18.42
2023-01-13T22:16:45.581Z,18.36
2023-01-13T22:19:14.765Z,18.27
2023-01-13T22:21:42.302Z,18.29
2023-01-13T22:24:11.661Z,18.29
2023-01-13T22:26:38.986Z,18.28
2023-01-13T22:29:07.128Z,18.25
2023-01-13T22:31:35.992Z,18.20
2023-01-13T22:34:03.547Z,18.16
2023-01-13T22:36:30.708Z,18.16
2023-01-13T22:39:00.058Z,18.16
2023-01-13T22:41:27.418Z,18.10
2023-01-13T22:43:54.859Z,18.06
2023-01-13T22:46:23.611Z,18.08
2023-01-13T22:48:54.023Z,18.07
2023-01-13T22:51:23.139Z,17.99
2023-01-13T22:53:50.623Z,17.96
2023-01-13T22:56:21.465Z,17.93
2023-01-13T22:58:51.094Z,17.90
2023-01-13T23:01:18.446Z,17.84
2023-01-13T23:03:48.184Z,17.83
2023-01-13T23:06:16.185Z,17.80
2023-01-13T23:08:45.059Z,17.73
2023-01-13T23:11:14.632Z,17.77
2023-01-13T23:13:46.250Z,17.73
2023-01-13T23:16:20.593Z,17.71
2023-01-13T23:18:48.870Z,17.71
2023-01-13T23:21:20.573Z,17.67
2023-01-13T23:23:48.516Z,17.67
2023-01-13T23:26:16.476Z,17.65
2023-01-13T23:28:44.206Z,17.66
2023-01-13T23:31:20.721Z,17.61
2023-01-13T23:33:49.130Z,17.58
2023-01-13T23:36:22.464Z,17.57
2023-01-13T23:38:50.292Z,17.55
2023-01-13T23:41:22.723Z,17.53
2023-01-13T23:43:54.612Z,17.45
2023-01-13T23:46:22.419Z,17.46
2023-01-13T23:48:50.873Z,17.42
2023-01-13T23:51:18.712Z,17.42
2023-01-13T23:53:48.380Z,17.39
2023-01-13T23:56:19.645Z,17.37
2023-01-13T23:58:47.556Z,17.35
